createdAt,value
2022-09-16T00:00:44.343Z,1.58
2022-09-16T00:03:49.495Z,1.10
2022-09-16T00:06:52.308Z,1.10
2022-09-16T00:09:55.102Z,1.20
2022-09-16T00:12:57.874Z,1.35
2022-09-16T00:16:00.915Z,0.90
2022-09-16T00:19:05.285Z,0.90
2022-09-16T00:22:08.161Z,0.95
2022-09-16T00:25:11.097Z,0.90
2022-09-16T00:28:13.848Z,0.82
2022-09-16T00:31:16.899Z,1.10
2022-09-16T00:34:21.156Z,1.00
2022-09-16T00:37:23.958Z,0.95
2022-09-16T00:40:26.841Z,1.05
2022-09-16T00:43:30.042Z,1.00
2022-09-16T00:46:37.106Z,1.00
2022-09-16T00:49:41.822Z,0.88
2022-09-16T00:52:45.154Z,1.10
2022-09-16T00:55:48.206Z,1.10
2022-09-16T00:58:57.012Z,1.02
2022-09-16T01:02:04.273Z,0.90
2022-09-16T01:05:13.268Z,1.02
2022-09-16T01:08:16.147Z,0.90
2022-09-16T01:11:19.209Z,0.82
2022-09-16T01:14:44.280Z,0.90
2022-09-16T01:18:09.366Z,1.20
2022-09-16T01:21:28.330Z,1.02
2022-09-16T01:24:50.342Z,1.00
2022-09-16T01:28:26.959Z,1.08
2022-09-16T01:31:36.873Z,1.27
2022-09-16T01:34:51.863Z,1.10
2022-09-16T01:38:03.881Z,1.00
2022-09-16T01:41:11.292Z,1.05
2022-09-16T01:44:26.850Z,1.38
2022-09-16T01:47:37.903Z,1.00
2022-09-16T01:50:46.554Z,1.40
2022-09-16T01:53:56.735Z,1.10
2022-09-16T01:57:05.074Z,1.10
2022-09-16T02:00:11.684Z,1.40
2022-09-16T02:03:22.493Z,1.13
2022-09-16T02:06:27.559Z,0.90
2022-09-16T02:09:34.441Z,0.73
2022-09-16T02:12:42.717Z,0.82
2022-09-16T02:15:50.738Z,1.00
2022-09-16T02:18:59.229Z,0.95
2022-09-16T02:22:06.162Z,0.90
2022-09-16T02:25:11.026Z,1.02
2022-09-16T02:28:18.725Z,1.15
2022-09-16T02:31:26.610Z,1.00
2022-09-16T02:34:35.496Z,1.10
2022-09-16T02:37:43.351Z,0.98
2022-09-16T02:40:52.157Z,1.08
2022-09-16T02:43:55.122Z,0.90
2022-09-16T02:47:03.384Z,0.82
2022-09-16T02:50:14.256Z,0.68
2022-09-16T02:53:27.693Z,0.88
2022-09-16T02:56:35.385Z,0.80
2022-09-16T02:59:38.979Z,1.05
2022-09-16T03:02:42.443Z,1.05
2022-09-16T03:06:07.642Z,0.90
2022-09-16T03:09:12.237Z,1.00
2022-09-16T03:12:34.385Z,1.20
2022-09-16T03:16:00.690Z,1.00
2022-09-16T03:19:15.389Z,1.23
2022-09-16T03:22:31.670Z,1.02
2022-09-16T03:25:48.628Z,0.82
2022-09-16T03:29:01.562Z,0.93
2022-09-16T03:32:15.308Z,0.80
2022-09-16T03:35:23.907Z,0.80
2022-09-16T03:38:28.747Z,0.90
2022-09-16T03:41:34.086Z,0.90
2022-09-16T03:44:39.170Z,0.90
2022-09-16T03:47:42.119Z,0.80
2022-09-16T03:50:45.000Z,0.90
2022-09-16T03:53:49.179Z,0.70
2022-09-16T03:56:52.057Z,1.00
2022-09-16T03:59:55.085Z,1.00
2022-09-16T04:02:58.016Z,0.90
2022-09-16T04:06:00.902Z,1.25
2022-09-16T04:09:07.130Z,1.00
2022-09-16T04:12:10.243Z,1.00
2022-09-16T04:15:13.179Z,0.90
2022-09-16T04:18:16.033Z,0.80
2022-09-16T04:21:19.144Z,0.80
2022-09-16T04:24:23.398Z,1.13
2022-09-16T04:27:26.620Z,1.15
2022-09-16T04:30:29.600Z,1.00
2022-09-16T04:33:34.499Z,0.85
2022-09-16T04:36:37.300Z,0.80
2022-09-16T04:39:41.613Z,0.98
2022-09-16T04:42:49.717Z,1.08
2022-09-16T04:45:52.575Z,0.88
2022-09-16T04:48:56.983Z,1.35
2022-09-16T04:51:59.752Z,1.40
2022-09-16T04:55:04.051Z,1.50
2022-09-16T04:58:06.820Z,1.20
2022-09-16T05:01:12.850Z,1.33
2022-09-16T05:04:15.856Z,1.40
2022-09-16T05:07:18.777Z,1.20
2022-09-16T05:10:23.077Z,1.30
2022-09-16T05:13:26.051Z,1.20
2022-09-16T05:16:29.071Z,1.20
2022-09-16T05:19:31.920Z,1.20
2022-09-16T05:22:34.888Z,1.17
2022-09-16T05:25:39.158Z,1.40
2022-09-16T05:28:42.379Z,1.30
2022-09-16T05:31:47.428Z,1.30
2022-09-16T05:34:50.824Z,1.10
2022-09-16T05:37:53.591Z,1.45
2022-09-16T05:41:00.922Z,1.00
2022-09-16T05:44:04.184Z,1.10
2022-09-16T05:47:07.172Z,1.17
2022-09-16T05:50:10.369Z,1.20
2022-09-16T05:53:13.165Z,1.00
2022-09-16T05:56:19.093Z,1.33
2022-09-16T05:59:23.511Z,1.30
2022-09-16T06:02:26.519Z,1.02
2022-09-16T06:05:29.370Z,1.10
2022-09-16T06:08:34.107Z,1.50
2022-09-16T06:11:40.288Z,1.05
2022-09-16T06:14:43.144Z,1.08
2022-09-16T06:17:46.061Z,1.20
2022-09-16T06:20:49.525Z,1.13
2022-09-16T06:23:53.277Z,1.45
2022-09-16T06:26:57.488Z,1.10
2022-09-16T06:30:00.373Z,1.20
2022-09-16T06:33:03.384Z,1.30
2022-09-16T06:36:07.710Z,1.25
2022-09-16T06:39:13.269Z,1.67
2022-09-16T06:42:17.715Z,1.23
2022-09-16T06:45:20.543Z,0.98
2022-09-16T06:48:23.477Z,1.95
2022-09-16T06:51:28.149Z,1.25
2022-09-16T06:54:31.005Z,1.30
2022-09-16T06:57:35.219Z,1.13
2022-09-16T07:00:38.071Z,1.10
2022-09-16T07:03:42.368Z,1.08
2022-09-16T07:07:07.973Z,1.33
2022-09-16T07:10:09.631Z,1.00
2022-09-16T07:13:13.817Z,1.00
2022-09-16T07:16:19.607Z,1.10
2022-09-16T07:19:22.746Z,1.15
2022-09-16T07:22:25.603Z,1.20
2022-09-16T07:25:30.518Z,1.00
2022-09-16T07:28:38.881Z,1.50
2022-09-16T07:31:42.938Z,1.30
2022-09-16T07:34:45.871Z,1.20
2022-09-16T07:37:48.817Z,1.13
2022-09-16T07:40:51.598Z,1.17
2022-09-16T07:43:58.994Z,1.50
2022-09-16T07:47:01.757Z,1.52
2022-09-16T07:50:04.999Z,1.27
2022-09-16T07:53:07.791Z,1.30
2022-09-16T07:56:13.641Z,1.35
2022-09-16T07:59:19.912Z,1.73
2022-09-16T08:02:22.807Z,1.30
2022-09-16T08:05:25.673Z,1.30
2022-09-16T08:08:28.539Z,1.50
2022-09-16T08:11:32.156Z,1.30
2022-09-16T08:14:39.691Z,1.35
2022-09-16T08:17:43.153Z,1.40
2022-09-16T08:20:46.051Z,1.40
2022-09-16T08:23:49.315Z,1.48
2022-09-16T08:26:52.338Z,1.30
2022-09-16T08:29:56.618Z,1.42
2022-09-16T08:33:00.356Z,1.40
2022-09-16T08:36:05.488Z,1.48
2022-09-16T08:39:08.443Z,1.50
2022-09-16T08:42:31.521Z,1.63
2022-09-16T08:45:43.586Z,1.45
2022-09-16T08:48:53.101Z,1.58
2022-09-16T08:51:56.945Z,1.33
2022-09-16T08:55:03.384Z,1.38
2022-09-16T08:58:13.489Z,1.35
2022-09-16T09:01:24.441Z,1.55
2022-09-16T09:04:27.606Z,1.25
2022-09-16T09:07:40.516Z,1.45
2022-09-16T09:10:49.782Z,1.60
2022-09-16T09:14:05.480Z,1.20
2022-09-16T09:17:22.073Z,1.52
2022-09-16T09:20:36.909Z,1.50
2022-09-16T09:23:50.647Z,1.13
2022-09-16T09:26:59.576Z,1.30
2022-09-16T09:30:13.466Z,1.63
2022-09-16T09:33:46.237Z,1.50
2022-09-16T09:37:01.200Z,1.27
2022-09-16T09:40:12.283Z,1.30
2022-09-16T09:43:20.228Z,1.63
2022-09-16T09:46:29.118Z,1.52
2022-09-16T09:49:37.148Z,1.52
2022-09-16T09:52:47.413Z,1.40
2022-09-16T09:55:55.530Z,1.70
2022-09-16T09:59:07.435Z,1.50
2022-09-16T10:02:17.313Z,1.60
2022-09-16T10:05:26.506Z,1.73
2022-09-16T10:08:34.115Z,1.60
2022-09-16T10:11:49.905Z,1.60
2022-09-16T10:14:52.696Z,1.90
2022-09-16T10:17:57.287Z,1.80
2022-09-16T10:21:07.723Z,1.67
2022-09-16T10:24:29.892Z,2.03
2022-09-16T10:27:36.370Z,1.70
2022-09-16T10:30:46.145Z,2.10
2022-09-16T10:33:49.049Z,1.92
2022-09-16T10:37:05.787Z,2.05
2022-09-16T10:40:18.490Z,1.90
2022-09-16T10:43:23.778Z,1.60
2022-09-16T10:46:27.100Z,2.05
2022-09-16T10:49:37.080Z,1.60
2022-09-16T10:52:45.180Z,1.70
2022-09-16T10:55:58.196Z,1.85
2022-09-16T10:59:06.342Z,1.77
2022-09-16T11:02:25.303Z,1.75
2022-09-16T11:05:34.549Z,1.67
2022-09-16T11:08:51.179Z,1.73
2022-09-16T11:12:11.015Z,1.60
2022-09-16T11:15:25.646Z,1.60
2022-09-16T11:18:49.261Z,1.40
2022-09-16T11:22:10.306Z,1.80
2022-09-16T11:25:31.604Z,1.60
2022-09-16T11:28:45.012Z,1.60
2022-09-16T11:31:58.850Z,1.90
2022-09-16T11:35:20.579Z,1.77
2022-09-16T11:38:41.194Z,1.70
2022-09-16T11:41:58.720Z,1.50
2022-09-16T11:45:10.515Z,1.48
2022-09-16T11:48:33.561Z,1.88
2022-09-16T11:51:48.679Z,1.63
2022-09-16T11:55:08.922Z,1.70
2022-09-16T11:58:23.480Z,1.70
2022-09-16T12:01:53.254Z,1.23
2022-09-16T12:05:03.075Z,1.50
2022-09-16T12:08:12.137Z,1.48
2022-09-16T12:11:21.377Z,1.38
2022-09-16T12:14:31.396Z,1.80
2022-09-16T12:17:37.912Z,1.17
2022-09-16T12:20:46.355Z,1.45
2022-09-16T12:23:53.876Z,1.55
2022-09-16T12:27:04.050Z,1.42
2022-09-16T12:30:16.507Z,1.60
2022-09-16T12:33:23.231Z,1.80
2022-09-16T12:36:31.276Z,1.15
2022-09-16T12:39:34.344Z,1.70
2022-09-16T12:43:18.488Z,1.30
2022-09-16T12:46:44.020Z,1.60
2022-09-16T12:50:17.540Z,1.77
2022-09-16T12:53:52.418Z,1.52
2022-09-16T12:57:18.554Z,1.27
2022-09-16T13:00:23.162Z,1.33
2022-09-16T13:03:31.450Z,1.45
2022-09-16T13:06:37.766Z,1.52
2022-09-16T13:09:41.665Z,1.30
2022-09-16T13:12:51.072Z,1.50
2022-09-16T13:15:58.029Z,1.30
2022-09-16T13:19:22.742Z,1.23
2022-09-16T13:22:30.039Z,1.25
2022-09-16T13:25:37.502Z,1.20
2022-09-16T13:28:41.982Z,1.33
2022-09-16T13:31:48.476Z,1.45
2022-09-16T13:35:03.470Z,1.52
2022-09-16T13:38:23.578Z,1.33
2022-09-16T13:41:33.128Z,1.50
2022-09-16T13:44:42.957Z,1.55
2022-09-16T13:47:50.606Z,1.60
2022-09-16T13:50:58.886Z,1.80
2022-09-16T13:54:04.358Z,1.80
2022-09-16T13:57:21.501Z,1.48
2022-09-16T14:00:26.278Z,1.40
2022-09-16T14:04:27.107Z,1.60
2022-09-16T14:07:44.018Z,1.52
2022-09-16T14:10:56.027Z,1.42
2022-09-16T14:14:05.710Z,1.33
2022-09-16T14:17:18.665Z,1.92
2022-09-16T14:20:24.040Z,1.90
2022-09-16T14:23:29.234Z,1.90
2022-09-16T14:26:32.046Z,1.58
2022-09-16T14:29:34.949Z,2.13
2022-09-16T14:32:39.471Z,2.90
2022-09-16T14:35:45.351Z,2.60
2022-09-16T14:38:55.007Z,2.33
2022-09-16T14:41:59.646Z,2.10
2022-09-16T14:45:02.627Z,2.40
2022-09-16T14:48:10.380Z,1.73
2022-09-16T14:51:25.893Z,1.73
2022-09-16T14:54:30.285Z,1.83
2022-09-16T14:57:33.460Z,1.55
2022-09-16T15:00:44.446Z,1.88
2022-09-16T15:03:54.076Z,1.70
2022-09-16T15:07:03.993Z,1.38
2022-09-16T15:10:15.457Z,1.70
2022-09-16T15:13:21.021Z,1.67
2022-09-16T15:16:25.752Z,1.60
2022-09-16T15:19:34.372Z,1.63
2022-09-16T15:22:41.600Z,1.42
2022-09-16T15:25:54.289Z,1.30
2022-09-16T15:28:59.401Z,1.50
2022-09-16T15:32:18.077Z,1.73
2022-09-16T15:35:24.372Z,1.77
2022-09-16T15:38:27.701Z,1.75
2022-09-16T15:41:32.147Z,1.48
2022-09-16T15:44:37.506Z,1.50
2022-09-16T15:47:55.546Z,1.40
2022-09-16T15:51:01.893Z,1.50
2022-09-16T15:54:09.856Z,1.60
2022-09-16T15:57:24.118Z,1.38
2022-09-16T16:00:26.941Z,1.85
2022-09-16T16:03:33.713Z,1.60
2022-09-16T16:06:48.834Z,1.85
2022-09-16T16:09:51.635Z,1.55
2022-09-16T16:12:57.117Z,1.50
2022-09-16T16:15:59.909Z,1.58
2022-09-16T16:19:03.977Z,1.73
2022-09-16T16:22:07.199Z,1.45
2022-09-16T16:25:10.879Z,1.60
2022-09-16T16:28:15.064Z,1.30
2022-09-16T16:31:19.378Z,1.70
2022-09-16T16:34:22.195Z,1.55
2022-09-16T16:37:45.503Z,1.50
2022-09-16T16:40:51.771Z,1.15
2022-09-16T16:43:55.995Z,1.50
2022-09-16T16:46:59.170Z,1.30
2022-09-16T16:50:02.036Z,1.45
2022-09-16T16:53:04.900Z,1.20
2022-09-16T16:56:13.990Z,1.50
2022-09-16T16:59:19.871Z,1.50
2022-09-16T17:02:22.841Z,1.60
2022-09-16T17:05:25.736Z,1.27
2022-09-16T17:08:28.543Z,1.48
2022-09-16T17:11:32.006Z,1.50
2022-09-16T17:14:36.994Z,1.20
2022-09-16T17:17:40.502Z,1.20
2022-09-16T17:20:43.678Z,1.30
2022-09-16T17:23:46.743Z,1.25
2022-09-16T17:26:49.748Z,1.33
2022-09-16T17:29:53.960Z,1.63
2022-09-16T17:32:56.764Z,1.27
2022-09-16T17:36:05.060Z,1.30
2022-09-16T17:39:10.854Z,1.63
2022-09-16T17:42:13.625Z,1.20
2022-09-16T17:45:17.790Z,1.40
2022-09-16T17:48:22.260Z,1.20
2022-09-16T17:51:25.550Z,1.20
2022-09-16T17:54:29.414Z,1.38
2022-09-16T17:57:33.435Z,1.52
2022-09-16T18:00:40.109Z,1.30
2022-09-16T18:03:47.586Z,1.50
2022-09-16T18:06:51.775Z,1.40
2022-09-16T18:09:55.298Z,1.15
2022-09-16T18:12:59.209Z,1.00
2022-09-16T18:16:09.365Z,1.20
2022-09-16T18:19:12.281Z,1.20
2022-09-16T18:22:15.060Z,1.25
2022-09-16T18:25:17.864Z,1.10
2022-09-16T18:28:20.740Z,1.25
2022-09-16T18:31:25.585Z,1.30
2022-09-16T18:34:33.249Z,1.10
2022-09-16T18:37:36.425Z,1.20
2022-09-16T18:40:39.695Z,1.25
2022-09-16T18:43:44.535Z,1.20
2022-09-16T18:46:49.175Z,1.17
2022-09-16T18:49:52.083Z,1.33
2022-09-16T18:52:54.861Z,1.50
2022-09-16T18:55:57.960Z,1.08
2022-09-16T18:59:21.113Z,1.48
2022-09-16T19:02:26.303Z,1.20
2022-09-16T19:05:29.326Z,1.48
2022-09-16T19:08:32.856Z,1.15
2022-09-16T19:11:37.387Z,1.48
2022-09-16T19:14:40.948Z,1.17
2022-09-16T19:17:45.206Z,1.20
2022-09-16T19:20:48.059Z,1.20
2022-09-16T19:23:55.163Z,1.33
2022-09-16T19:26:58.044Z,1.50
2022-09-16T19:30:00.893Z,1.70
2022-09-16T19:33:05.104Z,1.50
2022-09-16T19:36:12.159Z,1.40
2022-09-16T19:39:15.393Z,1.38
2022-09-16T19:42:18.245Z,1.30
2022-09-16T19:45:24.773Z,1.63
2022-09-16T19:48:33.627Z,1.50
2022-09-16T19:51:37.737Z,1.20
2022-09-16T19:54:40.547Z,1.20
2022-09-16T19:57:43.357Z,1.20
2022-09-16T20:00:55.770Z,1.20
2022-09-16T20:04:01.367Z,1.20
2022-09-16T20:07:05.745Z,1.25
2022-09-16T20:10:09.194Z,1.20
2022-09-16T20:13:12.525Z,1.30
2022-09-16T20:16:15.379Z,1.30
2022-09-16T20:19:21.143Z,0.95
2022-09-16T20:22:24.031Z,1.20
2022-09-16T20:25:26.836Z,1.17
2022-09-16T20:28:33.663Z,1.50
2022-09-16T20:31:37.900Z,1.20
2022-09-16T20:34:42.359Z,1.13
2022-09-16T20:37:45.129Z,1.23
2022-09-16T20:40:48.517Z,1.10
2022-09-16T20:43:51.576Z,1.40
2022-09-16T20:46:54.353Z,1.38
2022-09-16T20:49:58.543Z,1.15
2022-09-16T20:53:01.299Z,1.25
2022-09-16T20:56:05.791Z,1.23
2022-09-16T20:59:09.774Z,1.20
2022-09-16T21:02:13.005Z,1.27
2022-09-16T21:05:17.269Z,1.00
2022-09-16T21:08:20.055Z,0.95
2022-09-16T21:11:23.497Z,1.20
2022-09-16T21:14:26.260Z,1.02
2022-09-16T21:17:30.477Z,1.25
2022-09-16T21:20:34.651Z,1.10
2022-09-16T21:23:38.168Z,1.30
2022-09-16T21:26:41.394Z,1.30
2022-09-16T21:29:44.410Z,1.23
2022-09-16T21:32:47.177Z,1.00
2022-09-16T21:35:54.619Z,1.10
2022-09-16T21:38:58.059Z,1.00
2022-09-16T21:42:00.922Z,1.10
2022-09-16T21:45:03.764Z,1.30
2022-09-16T21:48:06.721Z,1.08
2022-09-16T21:51:13.164Z,0.95
2022-09-16T21:54:19.942Z,1.20
2022-09-16T21:57:23.349Z,1.23
2022-09-16T22:00:26.176Z,1.05
2022-09-16T22:03:28.975Z,1.02
2022-09-16T22:06:34.244Z,1.10
2022-09-16T22:09:37.061Z,1.08
2022-09-16T22:12:39.823Z,1.02
2022-09-16T22:15:50.732Z,1.10
2022-09-16T22:18:55.347Z,1.15
2022-09-16T22:21:59.616Z,0.95
2022-09-16T22:25:02.410Z,0.95
2022-09-16T22:28:05.808Z,1.02
2022-09-16T22:31:09.602Z,1.20
2022-09-16T22:34:12.731Z,0.75
2022-09-16T22:37:17.157Z,1.10
2022-09-16T22:40:20.278Z,1.27
2022-09-16T22:43:23.113Z,1.00
2022-09-16T22:46:28.568Z,1.38
2022-09-16T22:49:31.490Z,1.00
2022-09-16T22:52:35.651Z,1.30
2022-09-16T22:55:38.858Z,1.20
2022-09-16T22:58:43.850Z,1.17
2022-09-16T23:01:47.338Z,1.23
2022-09-16T23:04:50.255Z,1.35
2022-09-16T23:07:54.407Z,1.73
2022-09-16T23:10:57.613Z,1.30
2022-09-16T23:14:01.486Z,1.65
2022-09-16T23:17:04.341Z,1.45
2022-09-16T23:20:07.941Z,1.70
2022-09-16T23:23:12.275Z,1.35
2022-09-16T23:26:16.762Z,1.20
2022-09-16T23:29:19.701Z,1.50
2022-09-16T23:32:22.515Z,1.20
2022-09-16T23:35:25.427Z,1.23
2022-09-16T23:38:30.437Z,1.23
2022-09-16T23:41:33.898Z,1.33
2022-09-16T23:44:36.942Z,1.20
2022-09-16T23:47:39.742Z,1.40
2022-09-16T23:50:45.248Z,1.40
2022-09-16T23:53:50.256Z,1.23
2022-09-16T23:56:53.046Z,1.30
2022-09-16T23:59:56.112Z,1.50
